.
WxDataArchive / Data Records for 2009-05-02
2009-05-01 May 2009 2009-05-03

Data Records for Saturday, 02 May 2009

Time	Temp	Chill	HIndex	Humid	Dewpt	 Wind 	HiWind	WindDir	Rain 	Barom 
-----	----	-----	------	-----	-----	------	------	-------	-----	----- 
00:00	43.3	43.3	43.3	89	40.3	0	0	---	0.00	30.033 
00:05	43.2	43.2	43.2	90	40.5	0	0	---	0.00	30.033 
00:10	43.1	43.1	43.1	90	40.4	0	0	---	0.00	30.033 
00:15	42.9	42.9	42.9	90	40.2	0	0	---	0.00	30.032 
00:20	42.8	42.8	42.8	90	40.1	0	0	---	0.00	30.032 
00:25	42.6	42.6	42.6	91	40.2	0	0	---	0.00	30.032 
00:30	42.6	42.6	42.6	91	40.2	0	0	---	0.00	30.035 
00:35	42.6	42.6	42.6	91	40.2	0	0	---	0.00	30.035 
00:40	42.8	42.8	42.8	92	40.6	0	0	---	0.00	30.035 
00:45	42.8	42.8	42.8	92	40.6	0	0	---	0.00	30.035 
00:50	42.8	42.8	42.8	92	40.6	0	0	---	0.00	30.035 
00:55	42.8	42.8	42.8	92	40.6	0	0	---	0.00	30.035 
01:00	42.8	42.8	42.8	92	40.6	0	0	---	0.00	30.033 
01:05	42.6	42.6	42.6	92	40.4	0	0	---	0.00	30.033 
01:10	42.6	42.6	42.6	92	40.4	0	0	---	0.00	30.033 
01:15	42.5	42.5	42.5	92	40.3	0	0	---	0.00	30.041 
01:20	42.5	42.5	42.5	92	40.3	0	0	---	0.00	30.041 
01:25	42.5	42.5	42.5	93	40.6	0	0	---	0.00	30.041 
01:30	42.3	42.3	42.3	93	40.4	0	0	---	0.00	30.046 
01:35	42.2	42.2	42.2	93	40.3	0	0	---	0.00	30.046 
01:40	42.2	42.2	42.2	93	40.3	0	0	---	0.00	30.046 
01:45	42.2	42.2	42.2	93	40.3	0	0	---	0.00	30.044 
01:50	42.2	42.2	42.2	93	40.3	0	0	---	0.00	30.044 
01:55	42.1	42.1	42.1	93	40.2	0	0	---	0.00	30.044 
02:00	42.1	42.1	42.1	93	40.2	0	0	---	0.00	30.034 
02:05	41.9	41.9	41.9	93	40.0	0	0	---	0.00	30.034 
02:10	41.8	41.8	41.8	93	39.9	0	0	---	0.00	30.034 
02:15	41.8	41.8	41.8	93	39.9	0	0	---	0.00	30.035 
02:20	41.6	41.6	41.6	93	39.7	0	0	---	0.00	30.035 
02:25	41.6	41.6	41.6	93	39.7	0	0	---	0.00	30.035 
02:30	41.6	41.6	41.6	93	39.7	0	0	---	0.00	30.035 
02:35	41.6	41.6	41.6	93	39.7	0	0	---	0.00	30.035 
02:40	41.8	41.8	41.8	94	40.2	0	0	---	0.00	30.035 
02:45	41.9	41.9	41.9	94	40.3	0	0	---	0.00	30.035 
02:50	41.9	41.9	41.9	94	40.3	0	0	---	0.00	30.035 
02:55	42.1	42.1	42.1	94	40.5	0	0	---	0.00	30.035 
03:00	42.2	42.2	42.2	94	40.6	0	0	---	0.00	30.034 
03:05	42.3	42.3	42.3	94	40.7	0	0	---	0.00	30.034 
03:10	42.3	42.3	42.3	94	40.7	0	0	---	0.00	30.034 
03:15	42.5	42.5	42.5	94	40.9	0	0	---	0.00	30.031 
03:20	42.5	42.5	42.5	94	40.9	0	0	---	0.00	30.031 
03:25	42.6	42.6	42.6	94	41.0	0	0	---	0.00	30.031 
03:30	42.6	42.6	42.6	94	41.0	0	0	---	0.00	30.032 
03:35	42.8	42.8	42.8	94	41.2	0	0	---	0.00	30.032 
03:40	42.9	42.9	42.9	94	41.3	0	1	315	0.00	30.032 
03:45	43.1	43.1	43.1	94	41.5	0	1	315	0.00	30.024 
03:50	43.2	43.2	43.2	93	41.3	0	1	315	0.00	30.024 
03:55	43.3	43.3	43.3	93	41.4	0	1	315	0.00	30.024 
04:00	43.5	43.5	43.5	93	41.6	0	0	---	0.00	30.025 
04:05	43.5	43.5	43.5	92	41.3	0	0	---	0.00	30.025 
04:10	43.5	43.5	43.5	92	41.3	0	0	---	0.00	30.025 
04:15	43.5	43.5	43.5	92	41.3	0	0	---	0.00	30.022 
04:20	43.5	43.5	43.5	92	41.3	0	0	---	0.00	30.022 
04:25	43.5	43.5	43.5	91	41.0	0	0	---	0.00	30.022 
04:30	43.3	43.3	43.3	91	40.9	0	0	---	0.00	30.019 
04:35	43.3	43.3	43.3	91	40.9	0	0	---	0.00	30.019 
04:40	43.3	43.3	43.3	91	40.9	0	0	---	0.00	30.019 
04:45	43.2	43.2	43.2	91	40.8	0	0	---	0.00	30.023 
04:50	43.2	43.2	43.2	91	40.8	0	0	---	0.00	30.023 
04:55	42.9	42.9	42.9	91	40.5	0	0	---	0.00	30.023 
05:00	42.8	42.8	42.8	91	40.4	0	0	---	0.00	30.025 
05:05	42.5	42.5	42.5	91	40.1	0	0	---	0.00	30.025 
05:10	42.3	42.3	42.3	91	39.9	0	0	---	0.00	30.025 
05:15	42.2	42.2	42.2	91	39.8	0	0	---	0.00	30.025 
05:20	42.1	42.1	42.1	92	39.9	0	0	---	0.00	30.025 
05:25	41.8	41.8	41.8	92	39.6	0	0	---	0.00	30.025 
05:30	41.6	41.6	41.6	92	39.5	0	0	---	0.00	30.024 
05:35	41.6	41.6	41.6	92	39.5	0	0	---	0.00	30.024 
05:40	41.6	41.6	41.6	92	39.5	0	0	---	0.00	30.024 
05:45	41.8	41.8	41.8	92	39.6	0	0	---	0.00	30.025 
05:50	41.8	41.8	41.8	93	39.9	0	0	---	0.00	30.025 
05:55	42.1	42.1	42.1	93	40.2	0	0	---	0.00	30.025 
06:00	42.3	42.3	42.3	93	40.4	0	0	---	0.00	30.023 
06:05	42.6	42.6	42.6	93	40.7	0	1	315	0.00	30.023 
06:10	42.9	42.9	42.9	93	41.0	0	1	315	0.00	30.023 
06:15	43.3	43.3	43.3	92	41.1	0	1	315	0.00	30.016 
06:20	43.6	43.6	43.6	92	41.4	0	1	315	0.00	30.016 
06:25	44.1	44.1	44.1	91	41.6	0	1	315	0.00	30.016 
06:30	44.3	44.3	44.3	90	41.6	0	1	315	0.00	30.021 
06:35	44.6	44.6	44.6	89	41.6	0	1	315	0.00	30.021 
06:40	44.9	44.9	44.9	89	41.9	0	1	315	0.00	30.021 
06:45	45.2	45.2	45.2	88	41.9	0	1	315	0.00	30.021 
06:50	45.5	45.5	45.5	87	41.9	0	1	315	0.00	30.021 
06:55	45.7	45.7	45.7	87	42.1	0	1	315	0.00	30.021 
07:00	45.8	45.8	45.8	87	42.2	0	1	315	0.00	30.025 
07:05	46.1	46.1	46.1	86	42.1	0	1	315	0.00	30.025 
07:10	46.2	46.2	46.2	86	42.2	0	2	315	0.00	30.025 
07:15	46.5	46.5	46.5	86	42.5	0	3	292	0.00	30.031 
07:20	46.7	46.7	46.7	86	42.7	0	1	292	0.00	30.031 
07:25	46.8	46.8	46.8	86	42.8	0	1	292	0.00	30.031 
07:30	47.0	47.0	47.0	85	42.7	0	2	292	0.00	30.034 
07:35	47.1	47.1	47.1	85	42.8	0	1	292	0.00	30.034 
07:40	47.4	47.4	47.4	85	43.1	0	2	292	0.00	30.034 
07:45	47.6	47.6	47.6	85	43.3	0	2	292	0.00	30.028 
07:50	47.9	47.9	47.9	84	43.3	0	2	292	0.00	30.028 
07:55	48.0	48.0	48.0	84	43.4	0	2	270	0.00	30.028 
08:00	48.3	48.3	48.3	84	43.7	0	2	270	0.00	30.033 
08:05	48.5	48.5	48.5	83	43.6	0	2	270	0.00	30.033 
08:10	48.6	48.6	48.6	83	43.7	0	3	270	0.00	30.033 
08:15	48.8	48.8	48.8	83	43.9	1	4	248	0.00	30.037 
08:20	49.2	49.2	49.2	83	44.3	0	2	248	0.00	30.037 
08:25	49.4	49.4	49.4	81	43.8	1	4	248	0.00	30.037 
08:30	49.6	49.6	49.6	81	44.0	1	3	270	0.00	30.036 
08:35	49.9	49.9	49.9	80	44.0	1	3	248	0.00	30.036 
08:40	50.2	50.2	50.2	79	43.9	1	4	248	0.00	30.036 
08:45	50.5	50.5	50.5	77	43.6	1	2	248	0.00	30.033 
08:50	51.0	51.0	51.0	77	44.0	1	4	248	0.00	30.033 
08:55	51.3	51.3	51.3	76	44.0	1	3	248	0.00	30.033 
09:00	51.4	51.4	51.4	75	43.7	1	3	248	0.00	30.035 
09:05	51.7	51.7	51.7	76	44.4	0	2	248	0.00	30.035 
09:10	51.9	51.9	51.9	73	43.5	1	3	248	0.00	30.035 
09:15	52.0	52.0	52.0	73	43.6	1	3	248	0.00	30.039 
09:20	52.3	52.3	52.3	73	43.9	0	2	248	0.00	30.039 
09:25	52.5	52.5	52.5	72	43.7	1	4	248	0.00	30.039 
09:30	52.8	52.8	52.8	72	44.0	1	3	248	0.00	30.043 
09:35	53.1	53.1	53.1	71	43.9	1	4	248	0.00	30.043 
09:40	53.3	53.3	53.3	68	43.0	1	3	248	0.00	30.043 
09:45	53.5	53.5	53.5	68	43.2	1	4	248	0.00	30.042 
09:50	53.6	53.6	53.6	67	42.9	1	3	225	0.00	30.042 
09:55	53.8	53.8	53.8	68	43.5	1	3	292	0.00	30.042 
10:00	53.9	53.9	53.9	69	44.0	0	2	270	0.00	30.042 
10:05	54.7	54.7	54.7	68	44.3	1	2	270	0.00	30.042 
10:10	55.3	55.3	55.3	63	42.9	1	3	270	0.00	30.042 
10:15	55.0	55.0	55.0	62	42.2	1	3	270	0.00	30.033 
10:20	55.1	55.1	55.1	64	43.1	1	3	225	0.00	30.033 
10:25	55.3	55.3	55.3	59	41.2	1	3	248	0.00	30.033 
10:30	55.7	55.7	55.7	59	41.6	2	3	248	0.00	30.023 
10:35	56.5	56.5	56.5	61	43.2	1	3	248	0.00	30.023 
10:40	56.9	56.9	56.9	53	39.9	2	6	248	0.00	30.023 
10:45	57.0	57.0	57.0	56	41.5	2	4	248	0.00	30.020 
10:50	57.2	57.2	57.2	54	40.7	2	4	248	0.00	30.020 
10:55	57.6	57.6	57.6	53	40.6	1	4	248	0.00	30.020 
11:00	58.0	58.0	58.0	53	41.0	2	6	248	0.00	30.015 
11:05	58.4	58.4	58.4	51	40.3	2	4	248	0.00	30.015 
11:10	58.7	58.7	58.7	50	40.1	2	3	270	0.00	30.015 
11:15	58.7	58.7	58.7	46	38.0	2	5	292	0.00	30.014 
11:20	58.6	58.6	58.6	48	39.0	3	5	248	0.00	30.014 
11:25	59.0	59.0	59.0	52	41.4	2	3	292	0.00	30.014 
11:30	59.3	59.3	59.3	46	38.5	2	6	248	0.00	30.006 
11:35	59.3	59.3	59.3	44	37.4	3	5	248	0.00	30.006 
11:40	59.3	59.3	59.3	45	38.0	2	4	292	0.00	30.006 
11:45	59.6	59.6	59.6	45	38.2	2	5	248	0.00	30.006 
11:50	60.1	60.1	60.1	47	39.8	2	5	270	0.00	30.006 
11:55	60.4	60.4	60.4	49	41.1	2	4	270	0.00	30.006 
12:00	60.5	60.5	60.5	43	37.9	2	4	248	0.00	30.002 
12:05	60.9	60.9	60.9	39	35.8	3	7	248	0.00	30.002 
12:10	61.0	61.0	61.0	39	35.9	2	4	248	0.00	30.002 
12:15	61.2	61.2	61.2	42	37.9	1	4	292	0.00	30.001 
12:20	61.3	61.3	61.3	39	36.1	2	4	270	0.00	30.001 
12:25	61.8	61.8	61.8	42	38.5	2	4	270	0.00	30.001 
12:30	62.0	62.0	62.0	42	38.6	2	4	270	0.00	29.998 
12:35	62.0	62.0	62.0	35	34.0	3	9	248	0.00	29.998 
12:40	62.0	62.0	62.0	39	36.8	2	7	270	0.00	29.998 
12:45	62.0	62.0	62.0	37	35.4	2	6	270	0.00	29.991 
12:50	61.8	61.8	61.8	41	37.8	2	5	270	0.00	29.991 
12:55	62.0	62.0	62.0	37	35.4	2	5	248	0.00	29.991 
13:00	62.3	62.3	62.3	36	35.0	3	9	270	0.00	29.994 
13:05	62.7	62.7	62.7	38	36.7	2	4	248	0.00	29.994 
13:10	62.9	62.9	62.9	37	36.2	2	6	270	0.00	29.994 
13:15	62.9	62.9	62.9	36	35.5	3	5	248	0.00	29.987 
13:20	63.1	63.1	63.1	39	37.7	3	4	248	0.00	29.987 
13:25	63.1	63.1	63.1	36	35.7	2	5	270	0.00	29.987 
13:30	62.6	62.6	62.6	36	35.3	2	5	292	0.00	29.984 
13:35	63.1	63.1	63.1	39	37.7	3	6	270	0.00	29.984 
13:40	63.2	63.2	63.2	36	35.8	4	9	270	0.00	29.984 
13:45	63.2	63.2	63.2	37	36.5	3	6	270	0.00	29.979 
13:50	63.5	63.5	63.5	36	36.1	2	5	248	0.00	29.979 
13:55	63.9	63.9	63.9	38	37.8	2	6	270	0.00	29.979 
14:00	63.5	63.5	63.5	34	34.6	4	9	270	0.00	29.974 
14:05	63.9	63.9	63.9	35	35.7	3	7	248	0.00	29.974 
14:10	64.0	64.0	64.0	37	37.2	2	6	270	0.00	29.974 
14:15	64.5	64.5	64.5	35	36.2	2	7	270	0.00	29.968 
14:20	64.7	64.7	64.7	37	37.8	2	5	292	0.00	29.968 
14:25	65.0	65.0	65.0	37	38.1	3	10	248	0.00	29.968 
14:30	64.5	64.5	64.5	35	36.2	2	5	270	0.00	29.970 
14:35	63.7	63.7	63.7	37	36.9	2	4	270	0.00	29.970 
14:40	64.5	64.5	64.5	36	36.9	2	6	270	0.00	29.970 
14:45	65.0	65.0	65.0	33	35.2	3	10	270	0.00	29.961 
14:50	65.0	65.0	65.0	36	37.4	2	6	270	0.00	29.961 
14:55	64.8	64.8	64.8	34	35.8	3	10	248	0.00	29.961 
15:00	65.0	65.0	65.0	35	36.7	1	4	270	0.00	29.959 
15:05	65.3	65.3	65.3	37	38.4	4	10	270	0.00	29.959 
15:10	65.0	65.0	65.0	37	38.1	2	5	270	0.00	29.959 
15:15	65.0	65.0	65.0	37	38.1	3	7	270	0.00	29.957 
15:20	64.5	64.5	64.5	35	36.2	3	7	248	0.00	29.957 
15:25	64.5	64.5	64.5	39	39.0	2	4	270	0.00	29.957 
15:30	64.8	64.8	64.8	37	37.9	2	6	270	0.00	29.953 
15:35	65.0	65.0	65.0	35	36.7	3	6	270	0.00	29.953 
15:40	65.2	65.2	65.2	33	35.4	2	6	292	0.00	29.953 
15:45	65.2	65.2	65.2	36	37.6	2	7	315	0.00	29.953 
15:50	64.8	64.8	64.8	34	35.8	3	6	270	0.00	29.953 
15:55	65.2	65.2	65.2	35	36.9	2	6	248	0.00	29.953 
16:00	65.2	65.2	65.2	34	36.1	3	7	248	0.00	29.955 
16:05	64.5	64.5	64.5	38	38.3	2	6	248	0.00	29.955 
16:10	64.0	64.0	64.0	33	34.3	2	6	315	0.00	29.955 
16:15	64.3	64.3	64.3	32	33.8	3	4	270	0.00	29.954 
16:20	63.7	63.7	63.7	34	34.8	3	10	338	0.00	29.954 
16:25	63.9	63.9	63.9	37	37.1	3	6	270	0.00	29.954 
16:30	64.2	64.2	64.2	34	35.2	3	6	270	0.00	29.954 
16:35	64.2	64.2	64.2	35	36.0	2	4	315	0.00	29.954 
16:40	64.2	64.2	64.2	33	34.5	3	6	270	0.00	29.954 
16:45	64.0	64.0	64.0	35	35.8	2	6	270	0.00	29.950 
16:50	64.3	64.3	64.3	35	36.1	2	5	270	0.00	29.950 
16:55	64.3	64.3	64.3	35	36.1	2	4	270	0.00	29.950 
17:00	64.0	64.0	64.0	33	34.3	2	4	270	0.00	29.945 
17:05	63.4	63.4	63.4	35	35.3	2	6	292	0.00	29.945 
17:10	63.4	63.4	63.4	33	33.8	1	5	315	0.00	29.945 
17:15	63.9	63.9	63.9	34	35.0	2	5	270	0.00	29.940 
17:20	64.3	64.3	64.3	33	34.6	2	5	270	0.00	29.940 
17:25	64.7	64.7	64.7	35	36.4	2	5	248	0.00	29.940 
17:30	64.8	64.8	64.8	32	34.2	2	7	248	0.00	29.942 
17:35	64.5	64.5	64.5	32	34.0	2	5	270	0.00	29.942 
17:40	64.2	64.2	64.2	31	32.9	2	7	270	0.00	29.942 
17:45	64.3	64.3	64.3	33	34.6	2	5	270	0.00	29.939 
17:50	64.5	64.5	64.5	32	34.0	2	5	270	0.00	29.939 
17:55	64.2	64.2	64.2	31	32.9	2	5	270	0.00	29.939 
18:00	63.9	63.9	63.9	32	33.5	2	3	248	0.00	29.941 
18:05	63.5	63.5	63.5	35	35.4	2	5	248	0.00	29.941 
18:10	63.2	63.2	63.2	33	33.6	1	4	248	0.00	29.941 
18:15	63.4	63.4	63.4	34	34.5	1	2	248	0.00	29.938 
18:20	63.7	63.7	63.7	32	33.3	1	2	270	0.00	29.938 
18:25	63.4	63.4	63.4	33	33.8	2	4	270	0.00	29.938 
18:30	63.1	63.1	63.1	31	32.0	1	4	270	0.00	29.937 
18:35	63.2	63.2	63.2	34	34.4	1	4	248	0.00	29.937 
18:40	63.1	63.1	63.1	33	33.5	1	3	248	0.00	29.937 
18:45	62.9	62.9	62.9	34	34.1	2	4	248	0.00	29.937 
18:50	62.7	62.7	62.7	33	33.2	1	3	248	0.00	29.937 
18:55	62.7	62.7	62.7	31	31.6	1	2	315	0.00	29.937 
19:00	62.9	62.9	62.9	33	33.4	1	3	315	0.00	29.927 
19:05	62.7	62.7	62.7	31	31.6	2	4	248	0.00	29.927 
19:10	62.4	62.4	62.4	32	32.2	1	3	270	0.00	29.927 
19:15	62.1	62.1	62.1	32	31.9	0	2	270	0.00	29.929 
19:20	62.0	62.0	62.0	33	32.6	0	1	270	0.00	29.929 
19:25	61.8	61.8	61.8	34	33.1	0	1	270	0.00	29.929 
19:30	61.8	61.8	61.8	31	30.8	0	2	292	0.00	29.925 
19:35	61.8	61.8	61.8	31	30.8	1	2	292	0.00	29.925 
19:40	61.6	61.6	61.6	31	30.7	0	2	292	0.00	29.925 
19:45	61.6	61.6	61.6	32	31.5	0	1	292	0.00	29.926 
19:50	61.3	61.3	61.3	31	30.4	0	2	225	0.00	29.926 
19:55	61.2	61.2	61.2	31	30.3	0	4	292	0.00	29.926 
20:00	61.0	61.0	61.0	32	30.9	0	1	292	0.00	29.927 
20:05	60.7	60.7	60.7	31	29.9	0	1	292	0.00	29.927 
20:10	60.4	60.4	60.4	31	29.6	0	2	315	0.00	29.927 
20:15	60.1	60.1	60.1	31	29.4	0	1	315	0.00	29.925 
20:20	59.9	59.9	59.9	33	30.7	0	0	---	0.00	29.925 
20:25	59.5	59.5	59.5	35	31.8	0	0	---	0.00	29.925 
20:30	59.0	59.0	59.0	35	31.4	0	0	---	0.00	29.927 
20:35	58.6	58.6	58.6	35	31.0	0	0	---	0.00	29.927 
20:40	58.1	58.1	58.1	38	32.6	0	0	---	0.00	29.927 
20:45	57.3	57.3	57.3	40	33.2	0	0	---	0.00	29.935 
20:50	56.7	56.7	56.7	43	34.5	0	0	---	0.00	29.935 
20:55	56.2	56.2	56.2	43	34.0	0	0	---	0.00	29.935 
21:00	55.6	55.6	55.6	44	34.0	0	0	---	0.00	29.935 
21:05	55.0	55.0	55.0	44	33.5	0	0	---	0.00	29.935 
21:10	54.5	54.5	54.5	46	34.1	0	0	---	0.00	29.935 
21:15	54.1	54.1	54.1	47	34.3	0	0	---	0.00	29.936 
21:20	53.8	53.8	53.8	50	35.6	0	0	---	0.00	29.936 
21:25	53.3	53.3	53.3	50	35.1	0	0	---	0.00	29.936 
21:30	53.1	53.1	53.1	52	35.9	0	0	---	0.00	29.945 
21:35	52.8	52.8	52.8	52	35.7	0	0	---	0.00	29.945 
21:40	52.3	52.3	52.3	52	35.2	0	0	---	0.00	29.945 
21:45	52.0	52.0	52.0	54	35.9	0	0	---	0.00	29.951 
21:50	51.7	51.7	51.7	55	36.1	0	0	---	0.00	29.951 
21:55	51.4	51.4	51.4	55	35.8	0	0	---	0.00	29.951 
22:00	51.1	51.1	51.1	55	35.5	0	0	---	0.00	29.955 
22:05	51.0	51.0	51.0	56	35.9	0	0	---	0.00	29.955 
22:10	50.7	50.7	50.7	57	36.0	0	0	---	0.00	29.955 
22:15	50.5	50.5	50.5	58	36.3	0	0	---	0.00	29.957 
22:20	50.4	50.4	50.4	60	37.0	0	0	---	0.00	29.957 
22:25	50.2	50.2	50.2	60	36.9	0	0	---	0.00	29.957 
22:30	49.9	49.9	49.9	61	37.0	0	0	---	0.00	29.966 
22:35	49.8	49.8	49.8	62	37.3	0	0	---	0.00	29.966 
22:40	49.6	49.6	49.6	62	37.1	0	0	---	0.00	29.966 
22:45	49.5	49.5	49.5	62	37.0	0	0	---	0.00	29.962 
22:50	49.2	49.2	49.2	63	37.1	0	0	---	0.00	29.962 
22:55	49.1	49.1	49.1	64	37.5	0	0	---	0.00	29.962 
23:00	48.9	48.9	48.9	65	37.7	0	0	---	0.00	29.962 
23:05	48.8	48.8	48.8	66	38.0	0	0	---	0.00	29.962 
23:10	48.6	48.6	48.6	68	38.5	0	0	---	0.00	29.962 
23:15	48.3	48.3	48.3	68	38.2	0	0	---	0.00	29.955 
23:20	48.2	48.2	48.2	70	38.9	0	0	---	0.00	29.955 
23:25	48.0	48.0	48.0	71	39.1	0	0	---	0.00	29.955 
23:30	47.7	47.7	47.7	71	38.8	0	0	---	0.00	29.949 
23:35	47.6	47.6	47.6	72	39.0	0	0	---	0.00	29.949 
23:40	47.3	47.3	47.3	72	38.7	0	0	---	0.00	29.949 
23:45	47.1	47.1	47.1	72	38.5	0	0	---	0.00	29.950 
23:50	47.0	47.0	47.0	73	38.8	0	0	---	0.00	29.950 
23:55	46.8	46.8	46.8	73	38.6	0	0	---	0.00	29.950 

CoCoRaHS
IN-AL-39
A2 Web Hosting
Creative Commons License
GoDaddy
search engine by freefind advanced

loaded 2018-11-17 00:18:04 • last modified 2010-11-18 10:43:29
Privacy PolicyDisclaimer
• wx.awcolley.com is powered by PmWiki v.2002016 •
• all content (unless otherwise noted) © 2018 A W Colley